Terminal Aerodrome Forecast
Issued by NWS Atlanta, GA

Home | Current Version | Previous Version | Text Only | Print | Product List | Glossary On
Versions: 1 2 3 4 5 6 7 8 9 10 11 12 13 14 15 16 17 18 19 20 21 22 23 24 25 26 27 28 29 30 31 32 33 34 35 36 37 38
383
FTUS42 KFFC 201945 AAA
TAFATL
TAF AMD
KATL 201945Z 2020/2124 24010G18KT P6SM SCT035 BKN050
     FM202200 21008KT P6SM BKN035
     FM210300 20005KT P6SM SCT007 OVC025
     FM210500 19006KT 5SM BR VCSH BKN007 OVC015
     FM210900 23005KT 4SM BR VCSH OVC004
     FM211200 26005KT 3SM -TSRA BKN004 OVC015CB
     FM211600 16005KT 5SM -TSRA BKN007 OVC010CB=

USA.gov is the U.S. government's official web portal to all federal, state and local government web resources and services.